sensor_id;sensor_type;location;lat;lon;timestamp;pressure;altitude;pressure_sealevel;temperature;humidity
9281;BME280;4679;47.966;7.958;2024-02-23T06:58:05;95464.09;;;4.64;71.26
9281;BME280;4679;47.966;7.958;2024-02-23T07:00:08;95460.91;;;4.62;70.97
9281;BME280;4679;47.966;7.958;2024-02-23T07:02:09;95462.75;;;4.61;70.77
9281;BME280;4679;47.966;7.958;2024-02-23T07:04:11;95468.00;;;4.61;71.69
9281;BME280;4679;47.966;7.958;2024-02-23T07:06:12;95479.31;;;4.62;70.91
9281;BME280;4679;47.966;7.958;2024-02-23T07:08:14;95470.59;;;4.56;71.40
9281;BME280;4679;47.966;7.958;2024-02-23T07:10:16;95473.47;;;4.54;70.96
9281;BME280;4679;47.966;7.958;2024-02-23T07:12:18;95475.00;;;4.50;71.31
9281;BME280;4679;47.966;7.958;2024-02-23T07:14:21;95474.63;;;4.42;71.40
9281;BME280;4679;47.966;7.958;2024-02-23T07:16:22;95476.41;;;4.36;71.52
9281;BME280;4679;47.966;7.958;2024-02-23T07:18:24;95472.31;;;4.23;71.93
9281;BME280;4679;47.966;7.958;2024-02-23T07:20:25;95481.78;;;4.24;71.60
9281;BME280;4679;47.966;7.958;2024-02-23T07:22:27;95484.69;;;4.28;71.96
9281;BME280;4679;47.966;7.958;2024-02-23T07:24:29;95484.19;;;4.31;71.67
9281;BME280;4679;47.966;7.958;2024-02-23T07:26:31;95483.72;;;4.34;72.15
9281;BME280;4679;47.966;7.958;2024-02-23T07:28:32;95479.25;;;4.35;71.59
9281;BME280;4679;47.966;7.958;2024-02-23T07:30:35;95478.06;;;4.42;71.67
9281;BME280;4679;47.966;7.958;2024-02-23T07:32:37;95481.03;;;4.51;71.54
9281;BME280;4679;47.966;7.958;2024-02-23T07:34:38;95480.31;;;4.55;71.62
9281;BME280;4679;47.966;7.958;2024-02-23T07:36:40;95491.88;;;4.59;71.17
9281;BME280;4679;47.966;7.958;2024-02-23T07:38:42;95493.78;;;4.64;71.37
9281;BME280;4679;47.966;7.958;2024-02-23T07:40:44;95480.97;;;4.68;71.11
9281;BME280;4679;47.966;7.958;2024-02-23T07:42:46;95483.38;;;4.74;71.18
9281;BME280;4679;47.966;7.958;2024-02-23T07:44:48;95478.19;;;4.79;70.91
9281;BME280;4679;47.966;7.958;2024-02-23T07:46:50;95491.88;;;4.81;71.45
9281;BME280;4679;47.966;7.958;2024-02-23T07:48:52;95495.06;;;4.83;71.00
9281;BME280;4679;47.966;7.958;2024-02-23T07:50:54;95489.78;;;4.83;71.37
9281;BME280;4679;47.966;7.958;2024-02-23T07:52:55;95491.13;;;4.86;70.83
9281;BME280;4679;47.966;7.958;2024-02-23T07:54:56;95512.44;;;4.89;71.25
9281;BME280;4679;47.966;7.958;2024-02-23T07:56:58;95484.38;;;4.95;70.56
9281;BME280;4679;47.966;7.958;2024-02-23T07:59:00;95488.09;;;4.99;70.65
9281;BME280;4679;47.966;7.958;2024-02-23T08:01:03;95480.53;;;5.03;70.61
9281;BME280;4679;47.966;7.958;2024-02-23T08:03:06;95480.00;;;5.06;70.97
9281;BME280;4679;47.966;7.958;2024-02-23T08:05:09;95485.25;;;5.06;70.13
9281;BME280;4679;47.966;7.958;2024-02-23T08:07:11;95483.19;;;5.08;70.96
9281;BME280;4679;47.966;7.958;2024-02-23T08:09:12;95484.78;;;5.09;70.86
9281;BME280;4679;47.966;7.958;2024-02-23T08:11:14;95473.47;;;5.08;70.37
9281;BME280;4679;47.966;7.958;2024-02-23T08:13:16;95482.69;;;5.11;70.84
9281;BME280;4679;47.966;7.958;2024-02-23T08:15:18;95476.16;;;5.13;70.49
9281;BME280;4679;47.966;7.958;2024-02-23T08:17:19;95468.56;;;5.17;70.18
9281;BME280;4679;47.966;7.958;2024-02-23T08:19:22;95471.44;;;5.15;70.52
9281;BME280;4679;47.966;7.958;2024-02-23T08:21:24;95472.78;;;5.18;70.12
9281;BME280;4679;47.966;7.958;2024-02-23T08:23:25;95470.19;;;5.23;70.38
9281;BME280;4679;47.966;7.958;2024-02-23T08:25:27;95467.59;;;5.28;69.90
9281;BME280;4679;47.966;7.958;2024-02-23T08:27:29;95463.44;;;5.32;70.05
9281;BME280;4679;47.966;7.958;2024-02-23T08:29:31;95465.28;;;5.37;70.28
9281;BME280;4679;47.966;7.958;2024-02-23T08:31:32;95464.25;;;5.38;69.58
9281;BME280;4679;47.966;7.958;2024-02-23T08:33:34;95465.84;;;5.39;70.37
9281;BME280;4679;47.966;7.958;2024-02-23T08:35:37;95467.19;;;5.41;69.93
9281;BME280;4679;47.966;7.958;2024-02-23T08:37:38;95460.63;;;5.44;70.09
9281;BME280;4679;47.966;7.958;2024-02-23T08:39:40;95444.34;;;5.47;69.40
9281;BME280;4679;47.966;7.958;2024-02-23T08:41:41;95445.13;;;5.47;70.04
9281;BME280;4679;47.966;7.958;2024-02-23T08:43:43;95441.78;;;5.57;69.89
9281;BME280;4679;47.966;7.958;2024-02-23T08:45:44;95440.53;;;5.64;69.71
9281;BME280;4679;47.966;7.958;2024-02-23T08:47:45;95435.25;;;5.64;69.60
9281;BME280;4679;47.966;7.958;2024-02-23T08:49:47;95440.53;;;5.64;69.25
9281;BME280;4679;47.966;7.958;2024-02-23T08:51:49;95443.41;;;5.63;68.68
9281;BME280;4679;47.966;7.958;2024-02-23T08:53:50;95442.72;;;5.83;69.50
9281;BME280;4679;47.966;7.958;2024-02-23T08:55:52;95438.34;;;5.93;67.99
9281;BME280;4679;47.966;7.958;2024-02-23T08:57:53;95433.63;;;6.00;68.43
9281;BME280;4679;47.966;7.958;2024-02-23T08:59:55;95436.50;;;5.99;69.05
9281;BME280;4679;47.966;7.958;2024-02-23T09:01:58;95437.09;;;6.06;67.87
9281;BME280;4679;47.966;7.958;2024-02-23T09:03:58;95430.00;;;6.12;68.67
9281;BME280;4679;47.966;7.958;2024-02-23T09:06:00;95426.31;;;6.08;68.06
9281;BME280;4679;47.966;7.958;2024-02-23T09:08:02;95428.16;;;6.07;68.72
9281;BME280;4679;47.966;7.958;2024-02-23T09:10:04;95430.25;;;6.05;67.57
9281;BME280;4679;47.966;7.958;2024-02-23T09:12:07;95415.25;;;6.06;68.71
9281;BME280;4679;47.966;7.958;2024-02-23T09:14:10;95426.06;;;6.09;68.29
9281;BME280;4679;47.966;7.958;2024-02-23T09:16:12;95422.38;;;6.10;67.87
9281;BME280;4679;47.966;7.958;2024-02-23T09:18:14;95414.19;;;6.12;67.64
9281;BME280;4679;47.966;7.958;2024-02-23T09:20:16;95418.94;;;6.15;67.53
9281;BME280;4679;47.966;7.958;2024-02-23T09:22:18;95415.78;;;6.13;68.55
9281;BME280;4679;47.966;7.958;2024-02-23T09:24:21;95419.47;;;6.12;67.21
9281;BME280;4679;47.966;7.958;2024-02-23T09:26:22;95405.50;;;6.11;67.23
9281;BME280;4679;47.966;7.958;2024-02-23T09:28:24;95407.16;;;6.27;67.45
9281;BME280;4679;47.966;7.958;2024-02-23T09:30:25;95408.25;;;6.42;67.81
9281;BME280;4679;47.966;7.958;2024-02-23T09:32:27;95409.03;;;6.37;67.79
9281;BME280;4679;47.966;7.958;2024-02-23T09:34:28;95413.50;;;6.37;67.44
9281;BME280;4679;47.966;7.958;2024-02-23T09:36:30;95415.38;;;6.46;66.47
9281;BME280;4679;47.966;7.958;2024-02-23T09:38:32;95411.75;;;6.78;66.03
9281;BME280;4679;47.966;7.958;2024-02-23T09:40:35;95406.50;;;6.78;66.04
9281;BME280;4679;47.966;7.958;2024-02-23T09:42:38;95407.81;;;6.70;66.99
9281;BME280;4679;47.966;7.958;2024-02-23T09:44:39;95414.13;;;6.69;66.00
9281;BME280;4679;47.966;7.958;2024-02-23T09:46:43;95407.53;;;6.66;66.37
9281;BME280;4679;47.966;7.958;2024-02-23T09:48:44;95409.13;;;6.83;66.40
9281;BME280;4679;47.966;7.958;2024-02-23T09:50:47;95407.81;;;6.80;66.44
9281;BME280;4679;47.966;7.958;2024-02-23T09:52:49;95412.56;;;6.88;65.79
9281;BME280;4679;47.966;7.958;2024-02-23T09:54:51;95416.53;;;7.01;65.90
9281;BME280;4679;47.966;7.958;2024-02-23T09:56:54;95409.94;;;7.09;66.16
9281;BME280;4679;47.966;7.958;2024-02-23T09:58:59;95407.84;;;7.21;64.95
9281;BME280;4679;47.966;7.958;2024-02-23T10:01:02;95409.41;;;7.22;64.90
9281;BME280;4679;47.966;7.958;2024-02-23T10:03:04;95407.31;;;7.14;66.01
9281;BME280;4679;47.966;7.958;2024-02-23T10:05:06;95407.56;;;7.07;66.13
9281;BME280;4679;47.966;7.958;2024-02-23T10:07:08;95408.63;;;7.31;65.16
9281;BME280;4679;47.966;7.958;2024-02-23T10:09:10;95414.94;;;7.20;64.98
9281;BME280;4679;47.966;7.958;2024-02-23T10:11:13;95411.28;;;7.11;64.74
9281;BME280;4679;47.966;7.958;2024-02-23T10:13:18;95410.47;;;7.05;65.10
9281;BME280;4679;47.966;7.958;2024-02-23T10:15:18;95414.41;;;7.03;64.94
9281;BME280;4679;47.966;7.958;2024-02-23T10:17:20;95406.25;;;7.04;64.88
9281;BME280;4679;47.966;7.958;2024-02-23T10:19:22;95408.63;;;7.01;65.38
9281;BME280;4679;47.966;7.958;2024-02-23T10:21:28;95403.38;;;7.01;65.28
9281;BME280;4679;47.966;7.958;2024-02-23T10:23:30;95394.41;;;7.02;64.75
9281;BME280;4679;47.966;7.958;2024-02-23T10:25:33;95395.19;;;6.97;64.64
9281;BME280;4679;47.966;7.958;2024-02-23T10:27:35;95404.69;;;6.98;65.35
9281;BME280;4679;47.966;7.958;2024-02-23T10:29:38;95403.09;;;6.97;64.32
9281;BME280;4679;47.966;7.958;2024-02-23T10:31:40;95404.16;;;6.96;65.37
9281;BME280;4679;47.966;7.958;2024-02-23T10:33:44;95404.94;;;6.97;65.29
9281;BME280;4679;47.966;7.958;2024-02-23T10:35:50;95400.97;;;7.04;65.29
9281;BME280;4679;47.966;7.958;2024-02-23T10:37:57;95394.41;;;7.17;64.81
9281;BME280;4679;47.966;7.958;2024-02-23T10:40:00;95386.72;;;7.21;64.29
9281;BME280;4679;47.966;7.958;2024-02-23T10:42:08;95385.16;;;7.25;64.06
9281;BME280;4679;47.966;7.958;2024-02-23T10:44:10;95379.63;;;7.26;64.13
9281;BME280;4679;47.966;7.958;2024-02-23T10:46:14;95378.28;;;7.34;63.53
9281;BME280;4679;47.966;7.958;2024-02-23T10:48:16;95385.41;;;7.33;64.02
9281;BME280;4679;47.966;7.958;2024-02-23T10:50:19;95384.88;;;7.36;63.74
9281;BME280;4679;47.966;7.958;2024-02-23T10:52:20;95375.38;;;7.40;62.94
9281;BME280;4679;47.966;7.958;2024-02-23T10:54:25;95371.91;;;7.50;63.57
9281;BME280;4679;47.966;7.958;2024-02-23T10:56:27;95373.72;;;7.75;62.74
9281;BME280;4679;47.966;7.958;2024-02-23T10:58:29;95378.69;;;7.92;62.47
9281;BME280;4679;47.966;7.958;2024-02-23T11:00:31;95371.53;;;7.97;62.03
9281;BME280;4679;47.966;7.958;2024-02-23T11:02:35;95374.22;;;7.92;62.18
9281;BME280;4679;47.966;7.958;2024-02-23T11:04:39;95362.50;;;8.13;61.92
9281;BME280;4679;47.966;7.958;2024-02-23T11:06:41;95367.19;;;8.32;61.34
9281;BME280;4679;47.966;7.958;2024-02-23T11:08:42;95362.69;;;8.37;61.49
9281;BME280;4679;47.966;7.958;2024-02-23T11:10:49;95367.69;;;8.39;61.55
9281;BME280;4679;47.966;7.958;2024-02-23T11:12:57;95369.25;;;8.45;61.14
9281;BME280;4679;47.966;7.958;2024-02-23T11:14:59;95364.19;;;8.49;61.21
9281;BME280;4679;47.966;7.958;2024-02-23T11:17:01;95358.72;;;8.40;60.64
9281;BME280;4679;47.966;7.958;2024-02-23T11:19:05;95363.75;;;8.36;61.18
9281;BME280;4679;47.966;7.958;2024-02-23T11:21:09;95361.09;;;8.36;60.66
9281;BME280;4679;47.966;7.958;2024-02-23T11:23:13;95355.28;;;8.34;61.03
9281;BME280;4679;47.966;7.958;2024-02-23T11:25:17;95354.50;;;8.39;60.64
9281;BME280;4679;47.966;7.958;2024-02-23T11:27:18;95352.84;;;8.43;60.62
9281;BME280;4679;47.966;7.958;2024-02-23T11:29:20;95351.28;;;8.42;60.41
9281;BME280;4679;47.966;7.958;2024-02-23T11:31:23;95346.50;;;8.44;60.47
9281;BME280;4679;47.966;7.958;2024-02-23T11:33:28;95351.78;;;8.44;60.50
9281;BME280;4679;47.966;7.958;2024-02-23T11:35:30;95344.66;;;8.44;60.21
9281;BME280;4679;47.966;7.958;2024-02-23T11:37:32;95348.63;;;8.42;60.79
9281;BME280;4679;47.966;7.958;2024-02-23T11:39:35;95349.94;;;8.44;60.29
9281;BME280;4679;47.966;7.958;2024-02-23T11:41:38;95351.00;;;8.49;60.28
9281;BME280;4679;47.966;7.958;2024-02-23T11:43:39;95347.81;;;8.52;60.10
9281;BME280;4679;47.966;7.958;2024-02-23T11:45:41;95352.56;;;8.55;59.99
9281;BME280;4679;47.966;7.958;2024-02-23T11:47:42;95346.16;;;8.56;60.11
9281;BME280;4679;47.966;7.958;2024-02-23T11:49:44;95345.59;;;8.64;59.86
9281;BME280;4679;47.966;7.958;2024-02-23T11:51:47;95350.88;;;8.69;59.80
9281;BME280;4679;47.966;7.958;2024-02-23T11:53:49;95348.38;;;8.82;59.65
9281;BME280;4679;47.966;7.958;2024-02-23T11:55:50;95344.16;;;8.81;59.83
9281;BME280;4679;47.966;7.958;2024-02-23T11:57:52;95343.91;;;8.78;59.54
9281;BME280;4679;47.966;7.958;2024-02-23T11:59:52;95341.78;;;8.80;59.45
9281;BME280;4679;47.966;7.958;2024-02-23T12:01:54;95330.97;;;8.76;59.40
9281;BME280;4679;47.966;7.958;2024-02-23T12:03:56;95331.28;;;8.70;59.95
9281;BME280;4679;47.966;7.958;2024-02-23T12:05:57;95332.94;;;8.61;59.56
9281;BME280;4679;47.966;7.958;2024-02-23T12:08:01;95324.00;;;8.52;59.53
9281;BME280;4679;47.966;7.958;2024-02-23T12:10:04;95316.88;;;8.52;59.44
9281;BME280;4679;47.966;7.958;2024-02-23T12:12:06;95323.97;;;8.57;59.53
9281;BME280;4679;47.966;7.958;2024-02-23T12:14:09;95325.81;;;8.56;59.29
9281;BME280;4679;47.966;7.958;2024-02-23T12:16:11;95318.97;;;8.55;59.46
9281;BME280;4679;47.966;7.958;2024-02-23T12:18:13;95319.59;;;8.76;59.31
9281;BME280;4679;47.966;7.958;2024-02-23T12:20:15;95312.59;;;8.95;59.02
9281;BME280;4679;47.966;7.958;2024-02-23T12:22:17;95325.78;;;9.00;58.97
9281;BME280;4679;47.966;7.958;2024-02-23T12:24:20;95318.25;;;9.12;58.26
9281;BME280;4679;47.966;7.958;2024-02-23T12:26:23;95318.16;;;9.23;58.07
9281;BME280;4679;47.966;7.958;2024-02-23T12:28:24;95317.31;;;9.56;57.52
9281;BME280;4679;47.966;7.958;2024-02-23T12:30:26;95308.84;;;9.54;58.29
9281;BME280;4679;47.966;7.958;2024-02-23T12:32:29;95315.03;;;9.44;58.11
9281;BME280;4679;47.966;7.958;2024-02-23T12:34:30;95320.09;;;9.41;58.29
9281;BME280;4679;47.966;7.958;2024-02-23T12:36:34;95318.00;;;9.38;57.57
9281;BME280;4679;47.966;7.958;2024-02-23T12:38:36;95324.38;;;9.37;58.23
9281;BME280;4679;47.966;7.958;2024-02-23T12:40:39;95317.50;;;9.36;57.59
9281;BME280;4679;47.966;7.958;2024-02-23T12:42:41;95322.78;;;9.36;57.99
9281;BME280;4679;47.966;7.958;2024-02-23T12:44:43;95318.16;;;9.23;58.08
9281;BME280;4679;47.966;7.958;2024-02-23T12:46:45;95312.41;;;9.15;57.78
9281;BME280;4679;47.966;7.958;2024-02-23T12:48:46;95310.19;;;9.28;58.18
9281;BME280;4679;47.966;7.958;2024-02-23T12:50:48;95317.59;;;9.26;58.12
9281;BME280;4679;47.966;7.958;2024-02-23T12:52:50;95323.94;;;9.30;57.87
9281;BME280;4679;47.966;7.958;2024-02-23T12:54:52;95327.81;;;9.37;57.54
9281;BME280;4679;47.966;7.958;2024-02-23T12:56:55;95324.19;;;9.57;57.90
9281;BME280;4679;47.966;7.958;2024-02-23T12:58:57;95320.78;;;9.51;56.94
9281;BME280;4679;47.966;7.958;2024-02-23T13:00:59;95321.56;;;9.52;57.05
9281;BME280;4679;47.966;7.958;2024-02-23T13:03:00;95324.63;;;9.64;57.47
9281;BME280;4679;47.966;7.958;2024-02-23T13:05:02;95309.78;;;9.63;56.70
9281;BME280;4679;47.966;7.958;2024-02-23T13:07:04;95318.31;;;9.60;57.37
9281;BME280;4679;47.966;7.958;2024-02-23T13:09:06;95308.06;;;9.53;58.12
9281;BME280;4679;47.966;7.958;2024-02-23T13:11:09;95309.94;;;9.48;56.96
9281;BME280;4679;47.966;7.958;2024-02-23T13:13:12;95306.31;;;9.44;57.40
9281;BME280;4679;47.966;7.958;2024-02-23T13:15:13;95310.81;;;9.43;57.21
9281;BME280;4679;47.966;7.958;2024-02-23T13:17:15;95304.31;;;9.78;57.28
9281;BME280;4679;47.966;7.958;2024-02-23T13:19:18;95304.31;;;10.02;56.76
9281;BME280;4679;47.966;7.958;2024-02-23T13:21:19;95301.72;;;10.58;55.82
9281;BME280;4679;47.966;7.958;2024-02-23T13:23:21;95304.13;;;10.74;54.86
9281;BME280;4679;47.966;7.958;2024-02-23T13:25:22;95293.47;;;10.41;54.84
9281;BME280;4679;47.966;7.958;2024-02-23T13:27:23;95292.50;;;10.13;55.51
9281;BME280;4679;47.966;7.958;2024-02-23T13:29:26;95285.59;;;9.94;56.75
9281;BME280;4679;47.966;7.958;2024-02-23T13:31:28;95288.84;;;9.91;57.19
9281;BME280;4679;47.966;7.958;2024-02-23T13:33:30;95282.66;;;10.19;56.19
9281;BME280;4679;47.966;7.958;2024-02-23T13:35:31;95278.22;;;10.33;55.76
9281;BME280;4679;47.966;7.958;2024-02-23T13:37:32;95277.50;;;10.28;55.04
9281;BME280;4679;47.966;7.958;2024-02-23T13:39:34;95265.72;;;10.15;56.46
9281;BME280;4679;47.966;7.958;2024-02-23T13:41:36;95267.78;;;9.99;56.63
9281;BME280;4679;47.966;7.958;2024-02-23T13:43:38;95263.63;;;9.93;56.84
9281;BME280;4679;47.966;7.958;2024-02-23T13:45:49;95258.91;;;9.90;56.37
9281;BME280;4679;47.966;7.958;2024-02-23T13:47:58;95257.09;;;9.85;56.59
9281;BME280;4679;47.966;7.958;2024-02-23T13:50:01;95257.84;;;9.91;56.60
9281;BME280;4679;47.966;7.958;2024-02-23T13:52:02;95258.69;;;9.86;56.20
9281;BME280;4679;47.966;7.958;2024-02-23T13:54:04;95249.88;;;9.91;56.62
9281;BME280;4679;47.966;7.958;2024-02-23T13:56:05;95248.88;;;9.87;56.66
9281;BME280;4679;47.966;7.958;2024-02-23T13:58:06;95250.88;;;9.76;56.76
9281;BME280;4679;47.966;7.958;2024-02-23T14:00:09;95245.84;;;9.75;56.48
9281;BME280;4679;47.966;7.958;2024-02-23T14:02:14;95246.97;;;9.69;56.32
9281;BME280;4679;47.966;7.958;2024-02-23T14:04:17;95255.44;;;9.71;55.49
9281;BME280;4679;47.966;7.958;2024-02-23T14:06:18;95241.75;;;9.64;57.07
9281;BME280;4679;47.966;7.958;2024-02-23T14:08:20;95252.19;;;9.55;56.41
9281;BME280;4679;47.966;7.958;2024-02-23T14:10:22;95236.84;;;9.52;57.33
9281;BME280;4679;47.966;7.958;2024-02-23T14:12:24;95235.91;;;9.43;56.32
9281;BME280;4679;47.966;7.958;2024-02-23T14:14:26;95240.19;;;9.39;56.64
9281;BME280;4679;47.966;7.958;2024-02-23T14:16:27;95241.25;;;9.38;57.30
9281;BME280;4679;47.966;7.958;2024-02-23T14:18:30;95246.53;;;9.38;56.43
9281;BME280;4679;47.966;7.958;2024-02-23T14:20:32;95249.75;;;9.35;57.28
9281;BME280;4679;47.966;7.958;2024-02-23T14:22:34;95258.72;;;9.39;57.25
9281;BME280;4679;47.966;7.958;2024-02-23T14:24:35;95251.38;;;9.55;56.23
9281;BME280;4679;47.966;7.958;2024-02-23T14:26:37;95259.56;;;9.58;56.99
9281;BME280;4679;47.966;7.958;2024-02-23T14:28:38;95260.63;;;9.57;56.62
9281;BME280;4679;47.966;7.958;2024-02-23T14:30:41;95256.78;;;9.68;56.17
9281;BME280;4679;47.966;7.958;2024-02-23T14:32:43;95253.47;;;10.00;55.87
9281;BME280;4679;47.966;7.958;2024-02-23T14:34:45;95245.47;;;10.43;54.44
9281;BME280;4679;47.966;7.958;2024-02-23T14:36:47;95250.19;;;10.65;54.62
9281;BME280;4679;47.966;7.958;2024-02-23T14:38:47;95249.72;;;10.76;54.20
9281;BME280;4679;47.966;7.958;2024-02-23T14:40:49;95249.72;;;10.76;54.38
9281;BME280;4679;47.966;7.958;2024-02-23T14:42:52;95248.72;;;10.72;55.73
9281;BME280;4679;47.966;7.958;2024-02-23T14:44:53;95252.47;;;10.85;54.96
9281;BME280;4679;47.966;7.958;2024-02-23T14:46:56;95242.00;;;10.93;53.68
9281;BME280;4679;47.966;7.958;2024-02-23T14:48:57;95252.44;;;10.71;55.07
9281;BME280;4679;47.966;7.958;2024-02-23T14:51:00;95244.00;;;10.13;55.48
9281;BME280;4679;47.966;7.958;2024-02-23T14:53:04;95239.69;;;9.79;55.81
9281;BME280;4679;47.966;7.958;2024-02-23T14:55:06;95236.81;;;9.57;57.21
9281;BME280;4679;47.966;7.958;2024-02-23T14:57:07;95247.22;;;9.48;56.23
9281;BME280;4679;47.966;7.958;2024-02-23T14:59:09;95242.22;;;9.47;56.63
9281;BME280;4679;47.966;7.958;2024-02-23T15:01:09;95236.97;;;9.42;57.02
9281;BME280;4679;47.966;7.958;2024-02-23T15:03:11;95245.75;;;9.37;56.74
9281;BME280;4679;47.966;7.958;2024-02-23T15:05:13;95240.94;;;9.44;56.91
9281;BME280;4679;47.966;7.958;2024-02-23T15:07:16;95239.06;;;9.45;57.05
9281;BME280;4679;47.966;7.958;2024-02-23T15:09:17;95233.53;;;9.41;56.46
9281;BME280;4679;47.966;7.958;2024-02-23T15:11:19;95234.84;;;9.44;56.74
9281;BME280;4679;47.966;7.958;2024-02-23T15:13:20;95243.03;;;9.66;56.25
9281;BME280;4679;47.966;7.958;2024-02-23T15:15:22;95237.19;;;9.69;56.24
9281;BME280;4679;47.966;7.958;2024-02-23T15:17:23;95235.88;;;9.67;56.32
9281;BME280;4679;47.966;7.958;2024-02-23T15:19:24;95236.06;;;9.75;56.48
9281;BME280;4679;47.966;7.958;2024-02-23T15:21:27;95225.19;;;9.77;55.75
9281;BME280;4679;47.966;7.958;2024-02-23T15:23:30;95216.22;;;9.73;55.66
9281;BME280;4679;47.966;7.958;2024-02-23T15:25:31;95215.75;;;9.66;55.96
9281;BME280;4679;47.966;7.958;2024-02-23T15:27:35;95213.31;;;9.50;56.33
9281;BME280;4679;47.966;7.958;2024-02-23T15:29:37;95204.94;;;9.43;56.71
9281;BME280;4679;47.966;7.958;2024-02-23T15:31:39;95210.28;;;9.38;56.53
9281;BME280;4679;47.966;7.958;2024-02-23T15:33:42;95210.63;;;9.32;56.94
9281;BME280;4679;47.966;7.958;2024-02-23T15:35:45;95205.13;;;9.28;57.34
9281;BME280;4679;47.966;7.958;2024-02-23T15:37:47;95204.41;;;9.17;57.38
9281;BME280;4679;47.966;7.958;2024-02-23T15:39:50;95205.84;;;9.10;57.66
9281;BME280;4679;47.966;7.958;2024-02-23T15:41:52;95211.69;;;9.07;57.67
9281;BME280;4679;47.966;7.958;2024-02-23T15:43:54;95204.25;;;9.09;57.36
9281;BME280;4679;47.966;7.958;2024-02-23T15:45:55;95201.09;;;9.07;56.99
9281;BME280;4679;47.966;7.958;2024-02-23T15:47:56;95198.72;;;9.05;57.70
9281;BME280;4679;47.966;7.958;2024-02-23T15:49:57;95203.50;;;9.03;57.40
9281;BME280;4679;47.966;7.958;2024-02-23T15:52:00;95204.09;;;9.00;57.44
9281;BME280;4679;47.966;7.958;2024-02-23T15:54:01;95202.78;;;8.98;58.09
9281;BME280;4679;47.966;7.958;2024-02-23T15:56:04;95205.72;;;8.96;58.14
9281;BME280;4679;47.966;7.958;2024-02-23T15:58:05;95204.66;;;8.97;57.78
9281;BME280;4679;47.966;7.958;2024-02-23T16:00:08;95209.94;;;8.97;57.69
9281;BME280;4679;47.966;7.958;2024-02-23T16:02:10;95206.53;;;8.92;57.79
9281;BME280;4679;47.966;7.958;2024-02-23T16:04:12;95207.88;;;8.89;58.07
9281;BME280;4679;47.966;7.958;2024-02-23T16:06:14;95205.78;;;8.86;58.57
9281;BME280;4679;47.966;7.958;2024-02-23T16:08:15;95199.50;;;8.82;58.26
9281;BME280;4679;47.966;7.958;2024-02-23T16:10:17;95191.31;;;8.84;58.47
9281;BME280;4679;47.966;7.958;2024-02-23T16:12:20;95202.16;;;8.82;58.30
9281;BME280;4679;47.966;7.958;2024-02-23T16:14:22;95199.00;;;8.80;58.88
9281;BME280;4679;47.966;7.958;2024-02-23T16:16:23;95203.25;;;8.76;58.76
9281;BME280;4679;47.966;7.958;2024-02-23T16:18:25;95198.25;;;8.74;59.24
9281;BME280;4679;47.966;7.958;2024-02-23T16:20:26;95192.44;;;8.72;59.03
9281;BME280;4679;47.966;7.958;2024-02-23T16:22:28;95202.03;;;8.68;58.87
9281;BME280;4679;47.966;7.958;2024-02-23T16:24:29;95195.97;;;8.63;58.92
9281;BME280;4679;47.966;7.958;2024-02-23T16:26:31;95201.56;;;8.56;59.36
9281;BME280;4679;47.966;7.958;2024-02-23T16:28:36;95204.56;;;8.50;59.61
9281;BME280;4679;47.966;7.958;2024-02-23T16:30:39;95208.53;;;8.47;59.81
9281;BME280;4679;47.966;7.958;2024-02-23T16:32:41;95201.69;;;8.41;60.01
9281;BME280;4679;47.966;7.958;2024-02-23T16:34:42;95205.47;;;8.35;59.99
9281;BME280;4679;47.966;7.958;2024-02-23T16:36:43;95204.44;;;8.26;60.50
9281;BME280;4679;47.966;7.958;2024-02-23T16:38:45;95204.25;;;8.17;60.59
9281;BME280;4679;47.966;7.958;2024-02-23T16:40:46;95212.19;;;8.12;60.41
9281;BME280;4679;47.966;7.958;2024-02-23T16:42:48;95210.34;;;8.12;60.99
9281;BME280;4679;47.966;7.958;2024-02-23T16:44:51;95216.69;;;8.11;60.89
9281;BME280;4679;47.966;7.958;2024-02-23T16:46:52;95217.81;;;8.05;61.10
9281;BME280;4679;47.966;7.958;2024-02-23T16:48:54;95214.41;;;8.00;61.53
9281;BME280;4679;47.966;7.958;2024-02-23T16:50:56;95219.44;;;7.96;61.80
9281;BME280;4679;47.966;7.958;2024-02-23T16:52:58;95223.19;;;7.90;61.21
9281;BME280;4679;47.966;7.958;2024-02-23T16:54:58;95221.88;;;7.83;61.32
9281;BME280;4679;47.966;7.958;2024-02-23T16:57:00;95229.84;;;7.78;61.47
9281;BME280;4679;47.966;7.958;2024-02-23T16:59:02;95231.72;;;7.72;61.51
9281;BME280;4679;47.966;7.958;2024-02-23T17:01:06;95229.63;;;7.69;62.15
9281;BME280;4679;47.966;7.958;2024-02-23T17:03:07;95244.44;;;7.60;61.95
9281;BME280;4679;47.966;7.958;2024-02-23T17:05:08;95236.53;;;7.55;62.23
9281;BME280;4679;47.966;7.958;2024-02-23T17:07:10;95234.97;;;7.54;62.15
9281;BME280;4679;47.966;7.958;2024-02-23T17:09:11;95228.38;;;7.51;62.18
9281;BME280;4679;47.966;7.958;2024-02-23T17:11:13;95241.59;;;7.46;62.43
9281;BME280;4679;47.966;7.958;2024-02-23T17:13:15;95240.56;;;7.42;62.08
9281;BME280;4679;47.966;7.958;2024-02-23T17:15:15;95243.72;;;7.39;62.31
9281;BME280;4679;47.966;7.958;2024-02-23T17:17:18;95241.09;;;7.39;62.20
9281;BME280;4679;47.966;7.958;2024-02-23T17:19:20;95239.78;;;7.36;62.00
9281;BME280;4679;47.966;7.958;2024-02-23T17:21:23;95243.72;;;7.34;62.38
9281;BME280;4679;47.966;7.958;2024-02-23T17:23:24;95241.66;;;7.31;62.96
9281;BME280;4679;47.966;7.958;2024-02-23T17:25:27;95251.69;;;7.29;62.88
9281;BME280;4679;47.966;7.958;2024-02-23T17:27:29;95249.03;;;7.24;62.56
9281;BME280;4679;47.966;7.958;2024-02-23T17:29:31;95255.16;;;7.14;63.11
9281;BME280;4679;47.966;7.958;2024-02-23T17:31:34;95258.84;;;7.08;62.91
9281;BME280;4679;47.966;7.958;2024-02-23T17:33:37;95261.75;;;7.06;63.20
9281;BME280;4679;47.966;7.958;2024-02-23T17:35:39;95274.41;;;7.04;62.97
9281;BME280;4679;47.966;7.958;2024-02-23T17:37:40;95274.69;;;6.98;62.98
9281;BME280;4679;47.966;7.958;2024-02-23T17:39:42;95266.50;;;6.94;63.57
9281;BME280;4679;47.966;7.958;2024-02-23T17:41:44;95274.41;;;6.89;63.36
9281;BME280;4679;47.966;7.958;2024-02-23T17:43:45;95272.84;;;6.88;64.07
9281;BME280;4679;47.966;7.958;2024-02-23T17:45:47;95272.59;;;6.85;63.18
9281;BME280;4679;47.966;7.958;2024-02-23T17:47:47;95273.38;;;6.80;63.54
9281;BME280;4679;47.966;7.958;2024-02-23T17:49:50;95275.22;;;6.75;63.72
9281;BME280;4679;47.966;7.958;2024-02-23T17:51:52;95281.84;;;6.72;64.17
9281;BME280;4679;47.966;7.958;2024-02-23T17:53:54;95273.41;;;6.65;63.72
9281;BME280;4679;47.966;7.958;2024-02-23T17:55:58;95273.16;;;6.56;64.79
9281;BME280;4679;47.966;7.958;2024-02-23T17:57:59;95277.34;;;6.52;64.03
9281;BME280;4679;47.966;7.958;2024-02-23T18:00:01;95282.34;;;6.54;64.77
9281;BME280;4679;47.966;7.958;2024-02-23T18:02:04;95271.81;;;6.54;64.41
9281;BME280;4679;47.966;7.958;2024-02-23T18:04:05;95283.41;;;6.48;65.35
9281;BME280;4679;47.966;7.958;2024-02-23T18:06:08;95276.53;;;6.42;64.57
9281;BME280;4679;47.966;7.958;2024-02-23T18:08:10;95280.50;;;6.39;65.35
9281;BME280;4679;47.966;7.958;2024-02-23T18:10:12;95279.44;;;6.35;64.74